Time;durP1;ratioP1;P1;durP2;ratioP2;P2;SDS_P1;SDS_P2;PMS_P1;PMS_P2;Temp;Humidity;BMP_temperature;BMP_pressure;BME280_temperature;BME280_humidity;BME280_pressure;Samples;Min_cycle;Max_cycle;Signal;HPM_P1;HPM_P2
2022/08/04 00:00:22;;;;;;;;;;;;;;;;;;10567654;28;19930;-59
2022/08/04 00:05:24;;;;;;;;;;;;;;;;;;10586359;28;19930;-59
2022/08/04 00:10:26;;;;;;;;;;;;;;;;;;10577129;28;20260;-59
2022/08/04 00:15:28;;;;;;;;;;;;;;;;;;10567755;28;19931;-59
2022/08/04 00:20:31;;;;;;;;;;;;;;;;;;10584516;28;19924;-59
2022/08/04 00:25:33;;;;;;;;;;;;;;;;;;10583903;28;19931;-59
2022/08/04 00:30:35;;;;;;;;;;;;;;;;;;10585228;28;19935;-59
2022/08/04 00:35:37;;;;;;;;;;;;;;;;;;10584462;28;20394;-59
2022/08/04 00:40:39;;;;;;;;;;;;;;;;;;10583735;28;20472;-59
2022/08/04 00:45:41;;;;;;;;;;;;;;;;;;10584634;28;19930;-59
2022/08/04 00:51:03;;;;;;;;;;;;;;;;;;10584071;28;19976;-59
2022/08/04 00:56:05;;;;;;;;;;;;;;;;;;10583302;28;20306;-59
2022/08/04 01:01:07;;;;;;;;;;;;;;;;;;10583490;28;19923;-59
2022/08/04 01:06:09;;;;;;;;;;;;;;;;;;10583545;28;19924;-60
2022/08/04 01:11:12;;;;;;;;;;;;;;;;;;10583041;28;19924;-60
2022/08/04 01:16:14;;;;;;;;;;;;;;;;;;10582112;28;20282;-60
2022/08/04 01:21:16;;;;;;;;;;;;;;;;;;10583208;28;19924;-60
2022/08/04 01:26:18;;;;;;;;;;;;;;;;;;10582689;28;19931;-60
2022/08/04 01:31:40;;;;;;;;;;;;;;;;;;10577879;28;19928;-60
2022/08/04 01:36:42;;;;;;;;;;;;;;;;;;10582367;28;19931;-60
2022/08/04 01:41:44;;;;;;;;;;;;;;;;;;10581269;28;19931;-60
2022/08/04 01:46:58;;;;;;;;;;;;;;;;;;10582714;28;19924;-60
2022/08/04 01:52:01;;;;;;;;;;;;;;;;;;10564634;28;19930;-60
2022/08/04 01:57:03;;;;;;;;;;;;;;;;;;10581960;28;19924;-60
2022/08/04 02:02:25;;;;;;;;;;;;;;;;;;10581890;28;19927;-60
2022/08/04 02:07:27;;;;;;;;;;;;;;;;;;10581093;28;19931;-60
2022/08/04 02:12:29;;;;;;;;;;;;;;;;;;10581797;28;19931;-60
2022/08/04 02:17:31;;;;;;;;;;;;;;;;;;10581554;28;19931;-60
2022/08/04 02:22:33;;;;;;;;;;;;;;;;;;10582363;28;19924;-60
2022/08/04 02:27:35;;;;;;;;;;;;;;;;;;10590116;28;19928;-60
2022/08/04 02:32:57;;;;;;;;;;;;;;;;;;10590143;28;19984;-60
2022/08/04 02:37:59;;;;;;;;;;;;;;;;;;10587527;28;20295;-60
2022/08/04 02:43:01;;;;;;;;;;;;;;;;;;10587981;28;19923;-59
2022/08/04 02:48:03;;;;;;;;;;;;;;;;;;10589206;28;19931;-59
2022/08/04 02:53:25;;;;;;;;;;;;;;;;;;10589379;28;19977;-59
2022/08/04 02:58:28;;;;;;;;;;;;;;;;;;10587761;28;19924;-60
2022/08/04 03:03:30;;;;;;;;;;;;;;;;;;10587365;28;20383;-59
2022/08/04 03:08:32;;;;;;;;;;;;;;;;;;10586808;28;19928;-59
2022/08/04 03:13:35;;;;;;;;;;;;;;;;;;10588614;28;19923;-59
2022/08/04 03:18:37;;;;;;;;;;;;;;;;;;10569725;28;19923;-59
2022/08/04 03:23:39;;;;;;;;;;;;;;;;;;10587751;28;19931;-59
2022/08/04 03:28:41;;;;;;;;;;;;;;;;;;10587373;28;19947;-59
2022/08/04 03:33:44;;;;;;;;;;;;;;;;;;10587133;28;20363;-59
2022/08/04 03:38:46;;;;;;;;;;;;;;;;;;10585171;28;19927;-59
2022/08/04 03:43:56;;;;;;;;;;;;;;;;;;10586861;28;19924;-59
2022/08/04 03:49:00;;;;;;;;;;;;;;;;;;10586412;28;19924;-59
2022/08/04 03:54:03;;;;;;;;;;;;;;;;;;10586821;28;19924;-60
2022/08/04 03:59:05;;;;;;;;;;;;;;;;;;10567304;28;20382;-59
2022/08/04 04:04:07;;;;;;;;;;;;;;;;;;10586062;28;19931;-59
2022/08/04 04:09:09;;;;;;;;;;;;;;;;;;10586355;28;19931;-59
2022/08/04 04:14:17;;;;;;;;;;;;;;;;;;10586195;28;19924;-60
2022/08/04 04:19:19;;;;;;;;;;;;;;;;;;10585532;28;19924;-59
2022/08/04 04:24:21;;;;;;;;;;;;;;;;;;10585025;28;20282;-60
2022/08/04 04:29:23;;;;;;;;;;;;;;;;;;10567087;28;19923;-59
2022/08/04 04:34:25;;;;;;;;;;;;;;;;;;10585354;28;19927;-60
2022/08/04 04:39:27;;;;;;;;;;;;;;;;;;10583951;28;19924;-59
2022/08/04 04:44:30;;;;;;;;;;;;;;;;;;10584668;28;19923;-59
2022/08/04 04:49:32;;;;;;;;;;;;;;;;;;10583069;28;19924;-59
2022/08/04 04:54:34;;;;;;;;;;;;;;;;;;10583540;28;19995;-59
2022/08/04 04:59:36;;;;;;;;;;;;;;;;;;10583401;28;20022;-59
2022/08/04 05:04:38;;;;;;;;;;;;;;;;;;10583392;28;19924;-58
2022/08/04 05:09:40;;;;;;;;;;;;;;;;;;10583098;28;19924;-59
2022/08/04 05:14:42;;;;;;;;;;;;;;;;;;10583859;22;19931;-62
2022/08/04 05:19:44;;;;;;;;;;;;;;;;;;10564272;28;20286;-62
2022/08/04 05:24:47;;;;;;;;;;;;;;;;;;10582728;28;20300;-62
2022/08/04 05:29:49;;;;;;;;;;;;;;;;;;10582937;28;19931;-62
2022/08/04 05:34:52;;;;;;;;;;;;;;;;;;10582321;28;19924;-62
2022/08/04 05:39:54;;;;;;;;;;;;;;;;;;10581031;28;19924;-62
2022/08/04 05:44:56;;;;;;;;;;;;;;;;;;10582293;28;19935;-62
2022/08/04 05:49:58;;;;;;;;;;;;;;;;;;10581756;28;19930;-62
2022/08/04 05:55:02;;;;;;;;;;;;;;;;;;10582006;28;20427;-62
2022/08/04 06:00:05;;;;;;;;;;;;;;;;;;10585723;28;20366;-63
2022/08/04 06:05:26;;;;;;;;;;;;;;;;;;10590879;28;19928;-62
2022/08/04 06:10:28;;;;;;;;;;;;;;;;;;10591084;28;19931;-62
2022/08/04 06:15:30;;;;;;;;;;;;;;;;;;10590118;28;19924;-62
2022/08/04 06:20:33;;;;;;;;;;;;;;;;;;10589747;28;19924;-62
2022/08/04 06:25:35;;;;;;;;;;;;;;;;;;10589124;28;20443;-62
2022/08/04 06:30:37;;;;;;;;;;;;;;;;;;10590291;28;19931;-63
2022/08/04 06:35:40;;;;;;;;;;;;;;;;;;10588931;28;20400;-62
2022/08/04 06:40:42;;;;;;;;;;;;;;;;;;10588861;28;21241;-63
2022/08/04 06:45:44;;;;;;;;;;;;;;;;;;10588958;28;19932;-63
2022/08/04 06:50:46;;;;;;;;;;;;;;;;;;10589478;28;19934;-63
2022/08/04 06:56:08;;;;;;;;;;;;;;;;;;10589626;28;19924;-63
2022/08/04 07:01:10;;;;;;;;;;;;;;;;;;10587351;28;19927;-63
2022/08/04 07:06:12;;;;;;;;;;;;;;;;;;10588852;28;19923;-63
2022/08/04 07:11:15;;;;;;;;;;;;;;;;;;10586737;28;19934;-63
2022/08/04 07:16:18;;;;;;;;;;;;;;;;;;10587938;28;20370;-63
2022/08/04 07:21:21;;;;;;;;;;;;;;;;;;10586903;28;19931;-63
2022/08/04 07:26:23;;;;;;;;;;;;;;;;;;10585083;28;20267;-63
2022/08/04 07:31:25;;;;;;;;;;;;;;;;;;10568849;28;19931;-63
2022/08/04 07:36:34;;;;;;;;;;;;;;;;;;10587680;28;19924;-63
2022/08/04 07:41:51;;;;;;;;;;;;;;;;;;10587413;28;19930;-63
2022/08/04 07:46:53;;;;;;;;;;;;;;;;;;10587230;28;19924;-63
2022/08/04 07:51:55;;;;;;;;;;;;;;;;;;10585543;28;20467;-63
2022/08/04 07:56:57;;;;;;;;;;;;;;;;;;10585834;28;19933;-63
2022/08/04 08:01:59;;;;;;;;;;;;;;;;;;10552010;28;20382;-63
2022/08/04 08:07:01;;;;;;;;;;;;;;;;;;10557908;28;19924;-63
2022/08/04 08:12:03;;;;;;;;;;;;;;;;;;10584880;28;19923;-63
2022/08/04 08:17:25;;;;;;;;;;;;;;;;;;10584275;28;20371;-63
2022/08/04 08:22:28;;;;;;;;;;;;;;;;;;10584967;28;19931;-63
2022/08/04 08:27:30;;;;;;;;;;;;;;;;;;10585562;28;19931;-63
2022/08/04 08:32:32;;;;;;;;;;;;;;;;;;10584159;28;19923;-63
2022/08/04 08:37:34;;;;;;;;;;;;;;;;;;10582102;28;19924;-63
2022/08/04 08:42:41;;;;;;;;;;;;;;;;;;10585031;28;19924;-63
2022/08/04 08:47:43;;;;;;;;;;;;;;;;;;10584045;28;19923;-63
2022/08/04 08:53:05;;;;;;;;;;;;;;;;;;10583938;28;20402;-63
2022/08/04 08:58:07;;;;;;;;;;;;;;;;;;10584418;28;19931;-63
2022/08/04 09:03:09;;;;;;;;;;;;;;;;;;10584277;28;19924;-63
2022/08/04 09:08:11;;;;;;;;;;;;;;;;;;10584019;28;19924;-63
2022/08/04 09:13:13;;;;;;;;;;;;;;;;;;10583868;28;19931;-63
2022/08/04 09:18:16;;;;;;;;;;;;;;;;;;10582689;28;19935;-63
2022/08/04 09:23:18;;;;;;;;;;;;;;;;;;10583570;28;19998;-63
2022/08/04 09:28:20;;;;;;;;;;;;;;;;;;10582616;28;19924;-63
2022/08/04 09:33:42;;;;;;;;;;;;;;;;;;10582747;28;19930;-65
2022/08/04 09:38:46;;;;;;;;;;;;;;;;;;10583073;28;19936;-66
2022/08/04 09:43:52;;;;;;;;;;;;;;;;;;10582300;28;19985;-66
2022/08/04 09:49:00;;;;;;;;;;;;;;;;;;10581823;28;19977;-66
2022/08/04 09:54:02;;;;;;;;;;;;;;;;;;10582066;28;20274;-66
2022/08/04 09:59:06;;;;;;;;;;;;;;;;;;10582408;28;19923;-67
2022/08/04 10:04:08;;;;;;;;;;;;;;;;;;10582427;28;19928;-66
2022/08/04 10:09:10;;;;;;;;;;;;;;;;;;10583097;28;19924;-66
2022/08/04 10:14:12;;;;;;;;;;;;;;;;;;10581445;28;19946;-66
2022/08/04 10:19:15;;;;;;;;;;;;;;;;;;10582159;28;19931;-66
2022/08/04 10:24:17;;;;;;;;;;;;;;;;;;10581909;28;19924;-66
2022/08/04 10:29:19;;;;;;;;;;;;;;;;;;10581971;28;19924;-66
2022/08/04 10:34:21;;;;;;;;;;;;;;;;;;10581185;28;19931;-66
2022/08/04 10:40:35;;;;;;;;;;;;;;;;;;10581435;28;19912;-66
2022/08/04 10:45:10;;;;;;;;;;;;;;;;;;10583743;28;19946;-66
2022/08/04 10:50:12;;;;;;;;;;;;;;;;;;10570834;28;19924;-66
2022/08/04 10:55:14;;;;;;;;;;;;;;;;;;10589359;28;19924;-66
2022/08/04 11:00:18;;;;;;;;;;;;;;;;;;10589260;28;19935;-63
2022/08/04 11:05:20;;;;;;;;;;;;;;;;;;10588999;28;20010;-64
2022/08/04 11:10:22;;;;;;;;;;;;;;;;;;10588831;28;19930;-65
2022/08/04 11:15:25;;;;;;;;;;;;;;;;;;10587825;28;20391;-65
2022/08/04 11:20:27;;;;;;;;;;;;;;;;;;10588927;28;19930;-65
2022/08/04 11:25:36;;;;;;;;;;;;;;;;;;10588413;28;19927;-64
2022/08/04 11:30:38;;;;;;;;;;;;;;;;;;10588028;28;19930;-64
2022/08/04 11:35:40;;;;;;;;;;;;;;;;;;10587169;28;19930;-64
2022/08/04 11:40:42;;;;;;;;;;;;;;;;;;10587664;28;19924;-65
2022/08/04 11:46:03;;;;;;;;;;;;;;;;;;10587311;28;19970;-66
2022/08/04 11:51:05;;;;;;;;;;;;;;;;;;10587228;28;19931;-65
2022/08/04 11:56:08;;;;;;;;;;;;;;;;;;10586406;28;19924;-66
2022/08/04 12:01:12;;;;;;;;;;;;;;;;;;10586808;28;19923;-65
2022/08/04 12:06:14;;;;;;;;;;;;;;;;;;10585909;28;20286;-65
2022/08/04 12:11:16;;;;;;;;;;;;;;;;;;10585942;28;19934;-65
2022/08/04 12:16:18;;;;;;;;;;;;;;;;;;10585677;28;19924;-65
2022/08/04 12:21:20;;;;;;;;;;;;;;;;;;10585330;28;20286;-65
2022/08/04 12:26:22;;;;;;;;;;;;;;;;;;10582565;28;19924;-65
2022/08/04 12:31:24;;;;;;;;;;;;;;;;;;10583622;28;19923;-66
2022/08/04 12:36:26;;;;;;;;;;;;;;;;;;10584487;28;19928;-66
2022/08/04 12:41:28;;;;;;;;;;;;;;;;;;10585109;28;19932;-66
2022/08/04 12:46:31;;;;;;;;;;;;;;;;;;10584747;28;19924;-66
2022/08/04 12:51:33;;;;;;;;;;;;;;;;;;10584963;28;19924;-66
2022/08/04 12:56:55;;;;;;;;;;;;;;;;;;10584643;28;19950;-66
2022/08/04 13:01:57;;;;;;;;;;;;;;;;;;10584290;28;19934;-66
2022/08/04 13:07:11;;;;;;;;;;;;;;;;;;10582650;28;19924;-66
2022/08/04 13:12:13;;;;;;;;;;;;;;;;;;10583955;28;19923;-65
2022/08/04 13:17:15;;;;;;;;;;;;;;;;;;10583170;28;19930;-65
2022/08/04 13:22:17;;;;;;;;;;;;;;;;;;10583612;28;19934;-66
2022/08/04 13:27:19;;;;;;;;;;;;;;;;;;10583154;28;19961;-66
2022/08/04 13:32:22;;;;;;;;;;;;;;;;;;10582656;28;20390;-65
2022/08/04 13:37:24;;;;;;;;;;;;;;;;;;10582704;28;19938;-65
2022/08/04 13:42:27;;;;;;;;;;;;;;;;;;10582804;28;20274;-66
2022/08/04 13:47:29;;;;;;;;;;;;;;;;;;10568882;28;19931;-66
2022/08/04 13:52:31;;;;;;;;;;;;;;;;;;10566283;28;19924;-66
2022/08/04 13:57:33;;;;;;;;;;;;;;;;;;10582644;28;19924;-66
2022/08/04 14:02:35;;;;;;;;;;;;;;;;;;10582508;28;19924;-66
2022/08/04 14:07:37;;;;;;;;;;;;;;;;;;10581776;28;19928;-66
2022/08/04 14:12:40;;;;;;;;;;;;;;;;;;10579531;28;20329;-66
2022/08/04 14:17:47;;;;;;;;;;;;;;;;;;10581211;28;19931;-66
2022/08/04 14:22:49;;;;;;;;;;;;;;;;;;10589183;28;20030;-66
2022/08/04 14:27:52;;;;;;;;;;;;;;;;;;10589351;28;20290;-66
2022/08/04 14:32:54;;;;;;;;;;;;;;;;;;10570523;28;19924;-66
2022/08/04 14:37:57;;;;;;;;;;;;;;;;;;10589888;28;20022;-66
2022/08/04 14:42:59;;;;;;;;;;;;;;;;;;10589355;28;19923;-66
2022/08/04 14:48:01;;;;;;;;;;;;;;;;;;10589017;28;19930;-66
2022/08/04 14:53:03;;;;;;;;;;;;;;;;;;10588911;28;19931;-66
2022/08/04 14:58:05;;;;;;;;;;;;;;;;;;10571255;28;19923;-66
2022/08/04 15:03:27;;;;;;;;;;;;;;;;;;10588103;28;19927;-66
2022/08/04 15:08:30;;;;;;;;;;;;;;;;;;10588349;28;19931;-66
2022/08/04 15:13:32;;;;;;;;;;;;;;;;;;10587404;28;20414;-66
2022/08/04 15:18:34;;;;;;;;;;;;;;;;;;10588142;28;19923;-66
2022/08/04 15:23:37;;;;;;;;;;;;;;;;;;10588056;28;19923;-66
2022/08/04 15:28:40;;;;;;;;;;;;;;;;;;10586754;28;19923;-66
2022/08/04 15:33:42;;;;;;;;;;;;;;;;;;10585815;28;19932;-66
2022/08/04 15:38:44;;;;;;;;;;;;;;;;;;10586453;28;19947;-66
2022/08/04 15:43:47;;;;;;;;;;;;;;;;;;10586451;28;19924;-65
2022/08/04 15:48:56;;;;;;;;;;;;;;;;;;10587272;28;19923;-66
2022/08/04 15:53:58;;;;;;;;;;;;;;;;;;10586475;28;19927;-66
2022/08/04 15:59:04;;;;;;;;;;;;;;;;;;10586257;28;19931;-65
2022/08/04 16:04:06;;;;;;;;;;;;;;;;;;10585845;28;19950;-66
2022/08/04 16:09:08;;;;;;;;;;;;;;;;;;10585857;28;19923;-65
2022/08/04 16:14:10;;;;;;;;;;;;;;;;;;10586418;28;19924;-65
2022/08/04 16:19:13;;;;;;;;;;;;;;;;;;10584929;28;20282;-66
2022/08/04 16:24:15;;;;;;;;;;;;;;;;;;10584891;28;19930;-65
2022/08/04 16:29:17;;;;;;;;;;;;;;;;;;10584946;28;19983;-65
2022/08/04 16:34:19;;;;;;;;;;;;;;;;;;10584926;28;19931;-65
2022/08/04 16:39:41;;;;;;;;;;;;;;;;;;10584007;28;19969;-66
2022/08/04 16:44:52;;;;;;;;;;;;;;;;;;10557090;28;20274;-65
2022/08/04 16:49:54;;;;;;;;;;;;;;;;;;10579898;28;19956;-65
2022/08/04 16:54:56;;;;;;;;;;;;;;;;;;10583549;28;19934;-66
2022/08/04 16:59:58;;;;;;;;;;;;;;;;;;10578032;28;19923;-66
2022/08/04 17:05:00;;;;;;;;;;;;;;;;;;10584177;28;19924;-65
2022/08/04 17:10:08;;;;;;;;;;;;;;;;;;10579758;28;19932;-65
2022/08/04 17:15:10;;;;;;;;;;;;;;;;;;10576121;28;19927;-65
2022/08/04 17:20:12;;;;;;;;;;;;;;;;;;10573750;28;20313;-65
2022/08/04 17:25:14;;;;;;;;;;;;;;;;;;10575352;28;19924;-65
2022/08/04 17:30:16;;;;;;;;;;;;;;;;;;10565914;22;20400;-67
2022/08/04 17:35:18;;;;;;;;;;;;;;;;;;10533573;28;19940;-67
2022/08/04 17:40:20;;;;;;;;;;;;;;;;;;10534984;28;19928;-68
2022/08/04 17:45:26;;;;;;;;;;;;;;;;;;10525359;28;19969;-68
2022/08/04 17:50:48;;;;;;;;;;;;;;;;;;10573414;28;19932;-68
2022/08/04 17:55:50;;;;;;;;;;;;;;;;;;10574761;28;19927;-67
2022/08/04 18:00:52;;;;;;;;;;;;;;;;;;10563171;28;19968;-67
2022/08/04 18:06:06;;;;;;;;;;;;;;;;;;10570066;28;20362;-67
2022/08/04 18:11:09;;;;;;;;;;;;;;;;;;10575253;28;19928;-68
2022/08/04 18:16:11;;;;;;;;;;;;;;;;;;10547541;28;20267;-68
2022/08/04 18:21:23;;;;;;;;;;;;;;;;;;10533100;28;19953;-68
2022/08/04 18:26:26;;;;;;;;;;;;;;;;;;10533454;28;19931;-67
2022/08/04 18:31:28;;;;;;;;;;;;;;;;;;10530670;28;19935;-67
2022/08/04 18:36:30;;;;;;;;;;;;;;;;;;10514702;28;19928;-67
2022/08/04 18:41:38;;;;;;;;;;;;;;;;;;10558666;28;20038;-67
2022/08/04 18:47:00;;;;;;;;;;;;;;;;;;10573064;28;19928;-67
2022/08/04 18:52:23;;;;;;;;;;;;;;;;;;10574006;28;19973;-67
2022/08/04 18:57:26;;;;;;;;;;;;;;;;;;10573591;28;20379;-67
2022/08/04 19:02:48;;;;;;;;;;;;;;;;;;10572811;28;19939;-67
2022/08/04 19:07:50;;;;;;;;;;;;;;;;;;10550303;28;19935;-67
2022/08/04 19:13:03;;;;;;;;;;;;;;;;;;10539135;28;20012;-67
2022/08/04 19:18:05;;;;;;;;;;;;;;;;;;10539413;28;19928;-67
2022/08/04 19:23:08;;;;;;;;;;;;;;;;;;10540325;28;19928;-67
2022/08/04 19:28:30;;;;;;;;;;;;;;;;;;10527058;28;19924;-67
2022/08/04 19:33:35;;;;;;;;;;;;;;;;;;10545135;28;19924;-67
2022/08/04 19:38:57;;;;;;;;;;;;;;;;;;10545025;28;19969;-66
2022/08/04 19:44:01;;;;;;;;;;;;;;;;;;10539758;28;20420;-67
2022/08/04 19:49:03;;;;;;;;;;;;;;;;;;10545117;28;19924;-67
2022/08/04 19:54:05;;;;;;;;;;;;;;;;;;10544932;28;19924;-67
2022/08/04 19:59:17;;;;;;;;;;;;;;;;;;10544015;28;19946;-67
2022/08/04 20:04:19;;;;;;;;;;;;;;;;;;10543362;28;20375;-67
2022/08/04 20:09:23;;;;;;;;;;;;;;;;;;10544343;28;19924;-67
2022/08/04 20:14:27;;;;;;;;;;;;;;;;;;10543237;28;19924;-67
2022/08/04 20:19:33;;;;;;;;;;;;;;;;;;10543452;28;19977;-67
2022/08/04 20:24:35;;;;;;;;;;;;;;;;;;10543132;28;19924;-67
2022/08/04 20:29:46;;;;;;;;;;;;;;;;;;10543154;28;20011;-66
2022/08/04 20:34:49;;;;;;;;;;;;;;;;;;10542373;28;20298;-66
2022/08/04 20:39:52;;;;;;;;;;;;;;;;;;10542128;28;19924;-66
2022/08/04 20:44:56;;;;;;;;;;;;;;;;;;10542540;28;20020;-66
2022/08/04 20:49:58;;;;;;;;;;;;;;;;;;10541926;28;19961;-66
2022/08/04 20:55:00;;;;;;;;;;;;;;;;;;10538627;28;19927;-66
2022/08/04 21:00:02;;;;;;;;;;;;;;;;;;10537305;28;19924;-67
2022/08/04 21:05:04;;;;;;;;;;;;;;;;;;10540915;28;20375;-67
2022/08/04 21:10:06;;;;;;;;;;;;;;;;;;10523820;28;19924;-67
2022/08/04 21:15:09;;;;;;;;;;;;;;;;;;10541890;28;19924;-67
2022/08/04 21:20:18;;;;;;;;;;;;;;;;;;10541245;28;19924;-65
2022/08/04 21:25:28;;;;;;;;;;;;;;;;;;10540621;28;19924;-66
2022/08/04 21:30:30;;;;;;;;;;;;;;;;;;10522252;28;19928;-65
2022/08/04 21:35:38;;;;;;;;;;;;;;;;;;10499337;28;19931;-65
2022/08/04 21:40:40;;;;;;;;;;;;;;;;;;10498534;28;20299;-65
2022/08/04 21:45:42;;;;;;;;;;;;;;;;;;10499999;28;19931;-64
2022/08/04 21:50:44;;;;;;;;;;;;;;;;;;10498958;28;19931;-64
2022/08/04 21:55:51;;;;;;;;;;;;;;;;;;10533304;28;19924;-65
2022/08/04 22:01:09;;;;;;;;;;;;;;;;;;10532628;28;20330;-65
2022/08/04 22:06:14;;;;;;;;;;;;;;;;;;10499533;28;19925;-65
2022/08/04 22:11:18;;;;;;;;;;;;;;;;;;10497954;28;19924;-64
2022/08/04 22:16:20;;;;;;;;;;;;;;;;;;10497731;28;20324;-62
2022/08/04 22:21:24;;;;;;;;;;;;;;;;;;10522249;28;19928;-64
2022/08/04 22:26:26;;;;;;;;;;;;;;;;;;10538173;28;20015;-64
2022/08/04 22:31:28;;;;;;;;;;;;;;;;;;10565218;28;19924;-64
2022/08/04 22:36:30;;;;;;;;;;;;;;;;;;10581266;28;19928;-64
2022/08/04 22:41:32;;;;;;;;;;;;;;;;;;10558454;28;20272;-64
2022/08/04 22:46:49;;;;;;;;;;;;;;;;;;10571552;28;20374;-62
2022/08/04 22:51:52;;;;;;;;;;;;;;;;;;10589049;28;20370;-62
2022/08/04 22:56:54;;;;;;;;;;;;;;;;;;10589444;28;19930;-62
2022/08/04 23:01:56;;;;;;;;;;;;;;;;;;10583629;28;19924;-62
2022/08/04 23:07:01;;;;;;;;;;;;;;;;;;10547980;28;19924;-62
2022/08/04 23:12:06;;;;;;;;;;;;;;;;;;10546049;28;19931;-62
2022/08/04 23:17:25;;;;;;;;;;;;;;;;;;10570549;28;19963;-62
2022/08/04 23:22:28;;;;;;;;;;;;;;;;;;10588007;28;19959;-62
2022/08/04 23:27:38;;;;;;;;;;;;;;;;;;10585895;28;20390;-62
2022/08/04 23:32:44;;;;;;;;;;;;;;;;;;10587471;28;19931;-62
2022/08/04 23:37:46;;;;;;;;;;;;;;;;;;10587774;28;19924;-62
2022/08/04 23:42:57;;;;;;;;;;;;;;;;;;10569563;28;19931;-62
2022/08/04 23:47:59;;;;;;;;;;;;;;;;;;10580605;28;19946;-62
2022/08/04 23:53:19;;;;;;;;;;;;;;;;;;10586479;28;20002;-62
2022/08/04 23:58:23;;;;;;;;;;;;;;;;;;10587097;28;19923;-62
